Time;durP1;ratioP1;P1;durP2;ratioP2;P2;SDS_P1;SDS_P2;PMS_P1;PMS_P2;Temp;Humidity;BMP_temperature;BMP_pressure;BME280_temperature;BME280_humidity;BME280_pressure;Samples;Min_cycle;Max_cycle;Signal;HPM_P1;HPM_P2
2021/12/10 00:01:01;;;;;;;30.60;13.60;;;;;;;-3.61;94.46;99028.39;99749;1337;59731;-69
2021/12/10 00:03:56;;;;;;;32.60;14.60;;;;;;;-3.62;94.68;99025.50;100047;1343;72273;-69
2021/12/10 00:06:55;;;;;;;39.50;17.10;;;;;;;-3.64;94.48;99015.70;100044;1340;66981;-69
2021/12/10 00:09:53;;;;;;;32.20;13.70;;;;;;;-3.67;94.67;99010.92;99876;1346;72025;-69
2021/12/10 00:12:51;;;;;;;46.00;17.10;;;;;;;-3.70;94.94;99008.61;100170;1342;59702;-69
2021/12/10 00:15:42;;;;;;;44.70;17.30;;;;;;;-3.71;95.18;99006.75;99770;1344;59748;-69
2021/12/10 00:18:35;;;;;;;40.70;17.40;;;;;;;-3.68;95.35;99002.64;99948;1339;72336;-69
2021/12/10 00:21:29;;;;;;;40.40;18.00;;;;;;;-3.64;95.24;98994.53;99719;1340;68923;-69
2021/12/10 00:24:21;;;;;;;36.00;16.20;;;;;;;-3.62;95.54;98992.38;99301;1339;1003791;-70
2021/12/10 00:27:10;;;;;;;35.50;17.00;;;;;;;-3.63;95.27;98988.61;99796;1336;59770;-69
2021/12/10 00:30:09;;;;;;;39.10;16.20;;;;;;;-3.62;95.44;98983.35;99771;1342;61107;-69
2021/12/10 00:33:20;;;;;;;29.30;12.20;;;;;;;-3.62;95.37;98981.45;100007;1340;73531;-70
2021/12/10 00:36:09;;;;;;;44.10;18.30;;;;;;;-3.65;95.42;98976.73;99204;1345;1003233;-70
2021/12/10 00:39:01;;;;;;;40.80;17.10;;;;;;;-3.66;95.45;98972.23;99697;1344;71851;-69
2021/12/10 00:41:53;;;;;;;39.80;17.80;;;;;;;-3.63;95.25;98971.27;99863;1339;60155;-69
2021/12/10 00:44:46;;;;;;;39.20;14.90;;;;;;;-3.62;95.55;98964.13;99719;1343;59714;-69
2021/12/10 00:47:35;;;;;;;34.40;14.50;;;;;;;-3.63;95.44;98966.05;99940;1340;73271;-69
2021/12/10 00:50:34;;;;;;;34.40;15.10;;;;;;;-3.61;95.14;98963.73;99882;1342;68502;-69
2021/12/10 00:53:23;;;;;;;27.90;12.40;;;;;;;-3.61;95.47;98965.13;99909;1339;72763;-69
2021/12/10 00:56:12;;;;;;;39.10;17.00;;;;;;;-3.64;95.43;98972.16;99678;1337;59797;-69
2021/12/10 00:59:03;;;;;;;41.70;16.00;;;;;;;-3.69;95.41;98971.30;99701;1339;59746;-69
2021/12/10 01:01:53;;;;;;;44.00;17.30;;;;;;;-3.70;95.64;98966.66;99723;1336;72127;-69
2021/12/10 01:04:49;;;;;;;32.20;14.60;;;;;;;-3.67;95.71;98963.27;99619;1339;67027;-69
2021/12/10 01:07:40;;;;;;;35.80;15.80;;;;;;;-3.64;95.74;98963.31;99759;1344;73140;-69
2021/12/10 01:10:38;;;;;;;37.10;15.20;;;;;;;-3.61;95.93;98960.98;99974;1343;59672;-69
2021/12/10 01:13:32;;;;;;;36.80;16.50;;;;;;;-3.60;96.05;98959.01;99732;1339;59840;-69
2021/12/10 01:25:39;;;;;;;31.60;13.30;;;;;;;-3.64;95.98;98949.44;99926;1342;59814;-69
2021/12/10 01:28:28;;;;;;;38.30;16.30;;;;;;;-3.66;96.44;98941.91;99761;1340;60888;-69
2021/12/10 01:31:18;;;;;;;31.80;14.90;;;;;;;-3.67;96.50;98939.85;99781;1336;73695;-69
2021/12/10 01:34:11;;;;;;;37.40;14.80;;;;;;;-3.67;97.09;98936.39;99016;1345;1003157;-69
2021/12/10 01:37:02;;;;;;;37.70;17.80;;;;;;;-3.66;96.58;98934.98;99751;1344;73388;-69
2021/12/10 01:39:56;;;;;;;35.10;16.40;;;;;;;-3.66;96.84;98933.08;99019;1339;1003707;-69
2021/12/10 01:42:49;;;;;;;34.20;16.20;;;;;;;-3.65;97.17;98932.00;99983;1339;61062;-69
2021/12/10 01:45:47;;;;;;;30.50;13.10;;;;;;;-3.68;97.04;98922.38;99878;1339;73549;-69
2021/12/10 01:48:44;;;;;;;30.90;13.40;;;;;;;-3.68;97.08;98913.70;100071;1339;68862;-69
2021/12/10 01:51:39;;;;;;;34.20;15.50;;;;;;;-3.67;97.19;98917.50;99811;1339;72304;-69
2021/12/10 01:54:35;;;;;;;42.00;16.70;;;;;;;-3.67;97.42;98919.75;99667;1342;59699;-69
2021/12/10 01:57:31;;;;;;;35.90;15.30;;;;;;;-3.66;97.23;98914.35;99752;1337;61001;-69
2021/12/10 02:00:24;;;;;;;33.10;14.40;;;;;;;-3.66;97.12;98914.00;99708;1343;73492;-69
2021/12/10 02:03:14;;;;;;;32.70;14.00;;;;;;;-3.63;97.37;98910.73;99850;1337;67356;-70
2021/12/10 02:06:08;;;;;;;25.40;10.40;;;;;;;-3.64;97.59;98906.98;99916;1337;71479;-70
2021/12/10 02:08:57;;;;;;;36.50;15.40;;;;;;;-3.65;97.40;98899.91;99224;1339;1003012;-69
2021/12/10 02:11:47;;;;;;;29.70;13.20;;;;;;;-3.64;97.81;98892.94;99697;1337;59842;-69
2021/12/10 02:14:37;;;;;;;34.90;15.20;;;;;;;-3.62;97.87;98888.52;99934;1343;71905;-69
2021/12/10 02:17:36;;;;;;;32.30;14.90;;;;;;;-3.60;97.77;98884.63;99785;1333;66970;-69
2021/12/10 02:20:36;;;;;;;34.60;14.30;;;;;;;-3.58;97.86;98878.14;99782;1339;72723;-69
2021/12/10 02:23:26;;;;;;;35.30;14.90;;;;;;;-3.57;97.94;98878.30;100140;1337;59905;-69
2021/12/10 02:26:15;;;;;;;35.50;15.50;;;;;;;-3.56;97.96;98880.48;99835;1336;60761;-69
2021/12/10 02:29:06;;;;;;;38.10;15.70;;;;;;;-3.53;97.79;98878.65;99729;1339;71049;-70
2021/12/10 02:31:55;;;;;;;31.60;13.70;;;;;;;-3.50;97.82;98874.02;99123;1340;1003092;-69
2021/12/10 02:34:44;;;;;;;29.10;12.80;;;;;;;-3.47;97.77;98871.63;99807;1339;73135;-70
2021/12/10 02:37:35;;;;;;;27.50;12.80;;;;;;;-3.46;97.91;98876.27;99809;1340;59717;-70
2021/12/10 02:40:27;;;;;;;32.10;13.40;;;;;;;-3.47;97.99;98869.02;100000;1339;59830;-70
2021/12/10 02:43:20;;;;;;;35.70;15.00;;;;;;;-3.46;98.04;98864.82;99949;1343;73404;-70
2021/12/10 02:46:10;;;;;;;37.00;15.60;;;;;;;-3.44;97.77;98864.41;99929;1339;68311;-70
2021/12/10 02:49:00;;;;;;;31.70;14.10;;;;;;;-3.40;97.95;98862.67;99656;1342;71986;-70
2021/12/10 02:51:48;;;;;;;31.10;14.00;;;;;;;-3.34;97.63;98859.86;99675;1339;59979;-70
2021/12/10 02:54:38;;;;;;;26.60;13.10;;;;;;;-3.32;97.59;98854.75;99899;1343;60686;-70
2021/12/10 02:57:28;;;;;;;24.60;9.80;;;;;;;-3.32;97.34;98847.98;99842;1340;72543;-70
2021/12/10 03:00:23;;;;;;;29.50;14.50;;;;;;;-3.32;97.71;98841.75;100049;1341;66533;-69
2021/12/10 03:03:12;;;;;;;34.80;14.90;;;;;;;-3.33;97.80;98837.61;99803;1336;73159;-70
2021/12/10 03:06:01;;;;;;;33.60;14.70;;;;;;;-3.30;97.77;98831.77;99761;1342;59834;-70
2021/12/10 03:08:52;;;;;;;31.80;13.40;;;;;;;-3.26;97.45;98830.23;99735;1340;59793;-69
2021/12/10 03:11:46;;;;;;;27.00;11.50;;;;;;;-3.24;97.42;98822.33;99710;1336;73442;-70
2021/12/10 03:14:38;;;;;;;24.40;10.80;;;;;;;-3.22;97.58;98818.60;99907;1342;66619;-70
2021/12/10 03:17:31;;;;;;;23.70;10.30;;;;;;;-3.22;97.62;98816.69;99130;1342;1003445;-70
2021/12/10 03:20:29;;;;;;;31.20;13.90;;;;;;;-3.26;97.70;98817.18;99817;1343;59825;-69
2021/12/10 03:23:19;;;;;;;32.30;13.30;;;;;;;-3.29;97.78;98815.09;99690;1339;59611;-70
2021/12/10 03:26:12;;;;;;;28.50;11.40;;;;;;;-3.28;97.72;98815.38;99765;1336;71515;-70
2021/12/10 03:29:03;;;;;;;26.10;11.40;;;;;;;-3.25;97.92;98809.34;99961;1337;68264;-70
2021/12/10 03:31:55;;;;;;;30.40;12.50;;;;;;;-3.22;97.73;98798.14;99698;1340;70782;-70
2021/12/10 03:34:49;;;;;;;26.60;10.50;;;;;;;-3.20;97.82;98789.73;100226;1336;59833;-70
2021/12/10 03:37:38;;;;;;;35.50;14.90;;;;;;;-3.20;97.98;98789.00;99774;1343;60844;-71
2021/12/10 03:40:28;;;;;;;37.50;14.60;;;;;;;-3.17;97.87;98781.80;99701;1340;72418;-70
2021/12/10 03:43:20;;;;;;;30.80;13.50;;;;;;;-3.18;98.04;98780.11;99759;1336;66838;-70
2021/12/10 03:46:11;;;;;;;26.40;11.10;;;;;;;-3.19;97.90;98773.54;99682;1339;71787;-70
2021/12/10 03:49:03;;;;;;;25.40;10.90;;;;;;;-3.16;98.10;98773.23;99938;1337;59836;-69
2021/12/10 03:51:52;;;;;;;34.80;14.90;;;;;;;-3.18;98.35;98767.80;99882;1340;59801;-70
2021/12/10 03:54:42;;;;;;;32.80;14.10;;;;;;;-3.18;98.20;98764.83;99704;1343;73701;-69
2021/12/10 03:57:33;;;;;;;23.60;10.20;;;;;;;-3.16;98.55;98763.36;99705;1339;67265;-69
2021/12/10 04:00:28;;;;;;;26.70;10.30;;;;;;;-3.16;98.37;98758.16;99817;1343;70966;-69
2021/12/10 04:03:22;;;;;;;20.00;8.10;;;;;;;-3.17;98.45;98745.85;99782;1337;59859;-70
2021/12/10 04:06:11;;;;;;;26.40;12.40;;;;;;;-3.17;98.73;98736.67;99924;1339;59724;-70
2021/12/10 04:09:04;;;;;;;26.80;11.80;;;;;;;-3.17;98.41;98733.58;99018;1343;1005110;-70
2021/12/10 04:11:56;;;;;;;26.00;11.40;;;;;;;-3.15;98.87;98735.73;99690;1343;66951;-70
2021/12/10 04:14:48;;;;;;;23.90;10.50;;;;;;;-3.14;98.95;98753.55;99709;1339;71902;-70
2021/12/10 04:17:38;;;;;;;20.30;8.70;;;;;;;-3.14;98.73;98746.95;99830;1336;59860;-69
2021/12/10 04:20:30;;;;;;;23.80;10.90;;;;;;;-3.15;98.78;98753.61;99693;1339;60923;-70
2021/12/10 04:23:21;;;;;;;24.70;10.60;;;;;;;-3.17;99.04;98747.59;99776;1338;71638;-70
2021/12/10 04:26:14;;;;;;;24.30;10.10;;;;;;;-3.17;99.16;98746.58;99760;1337;67557;-70
2021/12/10 04:29:04;;;;;;;27.70;10.10;;;;;;;-3.15;99.36;98743.02;99626;1336;73122;-70
2021/12/10 04:31:56;;;;;;;20.50;9.40;;;;;;;-3.15;99.45;98740.40;99655;1336;59808;-70
2021/12/10 04:34:45;;;;;;;26.90;12.10;;;;;;;-3.13;99.25;98743.59;99654;1337;60671;-70
2021/12/10 04:37:36;;;;;;;27.80;11.60;;;;;;;-3.14;99.24;98748.67;98991;1339;1003296;-70
2021/12/10 04:40:26;;;;;;;26.70;11.10;;;;;;;-3.14;99.24;98746.10;99923;1343;67210;-70
2021/12/10 04:43:22;;;;;;;26.70;10.90;;;;;;;-3.15;99.40;98747.34;99702;1343;73326;-70
2021/12/10 04:46:11;;;;;;;23.10;8.80;;;;;;;-3.15;99.70;98740.75;99685;1343;59736;-70
2021/12/10 04:49:10;;;;;;;22.20;9.50;;;;;;;-3.13;99.64;98741.52;99073;1341;1003950;-70
2021/12/10 04:51:59;;;;;;;25.20;10.20;;;;;;;-3.13;99.68;98736.47;99791;1339;73788;-69
2021/12/10 04:54:49;;;;;;;30.40;12.10;;;;;;;-3.10;99.49;98726.49;99839;1339;66036;-70
2021/12/10 04:57:40;;;;;;;27.50;12.40;;;;;;;-3.08;99.64;98725.86;99867;1337;71709;-70
2021/12/10 05:00:36;;;;;;;23.80;10.00;;;;;;;-3.06;99.50;98727.20;99868;1339;59847;-70
2021/12/10 05:03:26;;;;;;;21.40;8.40;;;;;;;-3.03;99.54;98728.64;100042;1337;60539;-70
2021/12/10 05:06:15;;;;;;;25.80;10.70;;;;;;;-3.05;99.58;98725.56;100215;1340;72333;-69
2021/12/10 05:09:12;;;;;;;26.40;12.30;;;;;;;-3.03;99.40;98718.06;99755;1339;67303;-70
2021/12/10 05:12:04;;;;;;;31.40;13.30;;;;;;;-3.01;99.19;98729.23;100087;1340;71699;-69
2021/12/10 05:14:59;;;;;;;24.30;11.20;;;;;;;-2.99;99.13;98724.95;99780;1340;59713;-69
2021/12/10 05:17:52;;;;;;;27.20;10.50;;;;;;;-2.97;98.93;98725.58;99214;1343;1003600;-70
2021/12/10 05:20:44;;;;;;;26.90;11.50;;;;;;;-2.97;99.06;98726.60;99877;1337;72262;-70
2021/12/10 05:23:34;;;;;;;22.70;9.90;;;;;;;-2.98;98.87;98728.36;99802;1339;65885;-71
2021/12/10 05:26:23;;;;;;;24.80;11.10;;;;;;;-2.98;98.94;98722.98;100859;1342;71943;-72
2021/12/10 05:29:13;;;;;;;22.00;10.40;;;;;;;-2.97;98.79;98720.05;100391;1340;59762;-70
2021/12/10 05:32:05;;;;;;;23.30;9.40;;;;;;;-2.97;98.55;98711.50;100081;1336;59840;-71
2021/12/10 05:34:54;;;;;;;22.70;9.40;;;;;;;-2.95;98.66;98706.03;99991;1336;71723;-72
2021/12/10 05:37:43;;;;;;;24.90;10.00;;;;;;;-2.93;98.68;98699.38;99179;1343;1004080;-70
2021/12/10 05:40:34;;;;;;;30.50;11.90;;;;;;;-2.92;98.48;98700.52;100140;1337;72112;-71
2021/12/10 05:43:23;;;;;;;24.70;10.30;;;;;;;-2.89;98.50;98691.57;100240;1336;59743;-71
2021/12/10 05:46:16;;;;;;;22.80;9.00;;;;;;;-2.88;98.29;98686.84;100427;1339;59746;-71
2021/12/10 05:49:07;;;;;;;25.30;10.00;;;;;;;-2.86;98.33;98684.83;100325;1337;71874;-70
2021/12/10 05:51:58;;;;;;;26.10;10.40;;;;;;;-2.87;98.21;98682.63;100097;1337;67429;-71
2021/12/10 05:54:50;;;;;;;25.70;11.40;;;;;;;-2.87;98.56;98675.34;100285;1336;73260;-71
2021/12/10 05:57:40;;;;;;;21.80;9.90;;;;;;;-2.87;98.54;98674.30;100022;1337;59968;-72
2021/12/10 06:00:38;;;;;;;23.40;9.90;;;;;;;-2.88;98.54;98675.71;100196;1339;60719;-73
2021/12/10 06:03:27;;;;;;;22.50;9.50;;;;;;;-2.88;98.69;98679.55;100073;1342;73656;-72
2021/12/10 06:06:16;;;;;;;27.30;11.50;;;;;;;-2.91;99.05;98673.92;100110;1339;67978;-72
2021/12/10 06:09:09;;;;;;;20.70;8.70;;;;;;;-2.91;99.01;98673.77;99912;1339;73045;-72
2021/12/10 06:11:59;;;;;;;25.80;10.80;;;;;;;-2.91;99.60;98678.77;99958;1341;60767;-72
2021/12/10 06:14:49;;;;;;;26.20;11.40;;;;;;;-2.93;99.59;98677.67;100122;1342;59757;-71
2021/12/10 06:17:38;;;;;;;24.90;12.00;;;;;;;-2.93;99.58;98675.57;99983;1337;73313;-72
2021/12/10 06:20:33;;;;;;;22.60;10.20;;;;;;;-2.90;99.58;98681.02;100180;1339;67204;-71
2021/12/10 06:23:23;;;;;;;21.50;9.70;;;;;;;-2.89;99.57;98684.96;99183;1337;1003699;-72
2021/12/10 06:26:13;;;;;;;26.70;10.60;;;;;;;-2.89;99.84;98689.32;99924;1338;59766;-72
2021/12/10 06:29:04;;;;;;;28.90;11.80;;;;;;;-2.89;99.80;98681.48;99304;1337;1003877;-71
2021/12/10 06:31:55;;;;;;;29.70;12.10;;;;;;;-2.86;99.69;98683.98;100235;1337;73623;-71
2021/12/10 06:34:44;;;;;;;22.60;10.00;;;;;;;-2.88;99.78;98681.45;100233;1336;68114;-72
2021/12/10 06:37:34;;;;;;;21.50;9.30;;;;;;;-2.86;99.73;98674.78;99872;1340;73088;-71
2021/12/10 06:40:30;;;;;;;26.60;12.00;;;;;;;-2.85;99.91;98672.08;100185;1337;60327;-70
2021/12/10 06:43:22;;;;;;;28.00;11.30;;;;;;;-2.83;99.85;98672.88;100334;1340;60965;-72
2021/12/10 06:46:13;;;;;;;24.70;10.80;;;;;;;-2.79;99.90;98671.66;100414;1339;73894;-71
2021/12/10 06:49:03;;;;;;;23.70;10.50;;;;;;;-2.80;99.35;98668.76;100143;1337;68280;-71
2021/12/10 06:51:53;;;;;;;20.20;8.80;;;;;;;-2.79;99.24;98662.98;99936;1339;73617;-71
2021/12/10 06:54:43;;;;;;;18.00;7.80;;;;;;;-2.79;99.22;98658.63;100131;1342;59873;-70
2021/12/10 06:57:34;;;;;;;21.10;9.50;;;;;;;-2.81;99.21;98655.41;100075;1340;59744;-71
2021/12/10 07:00:32;;;;;;;18.80;8.40;;;;;;;-2.81;99.21;98654.20;99276;1339;1003276;-71
2021/12/10 07:03:25;;;;;;;20.10;9.10;;;;;;;-2.79;99.21;98653.59;100268;1336;67296;-71
2021/12/10 07:06:15;;;;;;;20.80;9.50;;;;;;;-2.77;99.15;98650.55;100092;1340;71719;-70
2021/12/10 07:09:12;;;;;;;19.40;9.10;;;;;;;-2.75;99.11;98644.58;99315;1339;1003519;-71
2021/12/10 07:12:03;;;;;;;17.90;8.50;;;;;;;-2.74;99.02;98639.14;100282;1336;60109;-70
2021/12/10 07:14:52;;;;;;;20.20;9.80;;;;;;;-2.75;98.89;98645.24;99848;1337;73786;-71
2021/12/10 07:17:45;;;;;;;20.80;10.00;;;;;;;-2.74;98.84;98641.56;100146;1337;65981;-71
2021/12/10 07:20:38;;;;;;;17.30;8.00;;;;;;;-2.73;98.82;98644.85;100064;1340;73451;-71
2021/12/10 07:23:28;;;;;;;19.00;9.00;;;;;;;-2.71;99.01;98640.74;100120;1339;59939;-72
2021/12/10 07:26:17;;;;;;;20.80;9.80;;;;;;;-2.71;99.02;98637.98;99792;1340;61073;-71
2021/12/10 07:29:08;;;;;;;22.30;10.30;;;;;;;-2.73;99.04;98635.96;99989;1337;71829;-70
2021/12/10 07:31:57;;;;;;;24.40;11.10;;;;;;;-2.69;99.09;98632.01;100157;1336;68324;-71
2021/12/10 07:34:46;;;;;;;21.70;10.30;;;;;;;-2.66;99.00;98632.52;99924;1343;73043;-71
2021/12/10 07:37:37;;;;;;;19.50;9.70;;;;;;;-2.49;100.00;98631.41;100145;1337;59767;-70
2021/12/10 07:40:31;;;;;;;20.10;9.70;;;;;;;-2.42;99.33;98627.73;99288;1337;1003505;-71
2021/12/10 07:43:21;;;;;;;20.00;9.30;;;;;;;-2.37;98.82;98622.70;99774;1336;74183;-71
2021/12/10 07:46:12;;;;;;;20.80;9.70;;;;;;;-2.36;98.48;98617.41;100105;1344;68452;-72
2021/12/10 07:49:04;;;;;;;22.30;9.80;;;;;;;-2.37;98.22;98616.76;99144;1342;1003633;-71
2021/12/10 07:51:54;;;;;;;21.80;9.30;;;;;;;-2.40;98.17;98609.04;99844;1342;59663;-71
2021/12/10 07:54:48;;;;;;;21.10;9.00;;;;;;;-2.39;98.38;98611.99;100044;1339;61274;-72
2021/12/10 07:57:37;;;;;;;22.70;10.40;;;;;;;-2.38;98.28;98613.86;99831;1337;73590;-71
2021/12/10 08:00:32;;;;;;;17.70;8.10;;;;;;;-2.37;98.29;98617.83;99815;1340;67010;-72
2021/12/10 08:03:25;;;;;;;18.60;7.90;;;;;;;-2.35;98.24;98615.30;100201;1342;73811;-72
2021/12/10 08:06:17;;;;;;;19.50;10.00;;;;;;;-2.34;98.19;98616.11;99955;1340;59733;-72
2021/12/10 08:09:09;;;;;;;22.90;10.40;;;;;;;-2.34;98.16;98612.60;99803;1339;60732;-73
2021/12/10 08:11:59;;;;;;;17.60;9.10;;;;;;;-2.33;97.89;98609.10;99681;1339;71836;-71
2021/12/10 08:14:52;;;;;;;18.70;8.60;;;;;;;-2.31;97.98;98611.24;99770;1336;67016;-72
2021/12/10 08:17:44;;;;;;;19.00;9.80;;;;;;;-2.30;97.89;98608.45;99929;1340;73212;-73
2021/12/10 08:20:34;;;;;;;20.50;9.00;;;;;;;-2.34;97.86;98614.73;100005;1339;59789;-71
2021/12/10 08:23:23;;;;;;;18.40;9.60;;;;;;;-2.37;98.17;98616.23;100084;1345;60746;-71
2021/12/10 08:26:15;;;;;;;20.70;9.10;;;;;;;-2.39;98.11;98615.13;99508;1340;1003131;-72
2021/12/10 08:29:07;;;;;;;16.40;7.20;;;;;;;-2.36;98.40;98611.14;100102;1336;67271;-72
2021/12/10 08:31:59;;;;;;;21.70;10.50;;;;;;;-2.33;98.76;98613.28;99958;1340;73591;-72
2021/12/10 08:34:49;;;;;;;19.70;10.20;;;;;;;-2.33;98.56;98608.08;100297;1336;59831;-72
2021/12/10 08:37:40;;;;;;;18.60;7.90;;;;;;;-2.36;98.44;98602.97;99896;1340;60974;-71
2021/12/10 08:40:41;;;;;;;19.10;9.40;;;;;;;-2.32;98.73;98598.95;99168;1339;1002978;-74
2021/12/10 08:43:31;;;;;;;17.80;8.50;;;;;;;-2.28;98.58;98606.23;100147;1337;68473;-73
2021/12/10 08:46:21;;;;;;;16.70;8.10;;;;;;;-2.25;98.53;98601.77;100285;1335;73076;-73
2021/12/10 08:49:13;;;;;;;21.80;9.60;;;;;;;-2.22;98.58;98601.43;99969;1339;59878;-73
2021/12/10 08:52:03;;;;;;;22.70;9.40;;;;;;;-2.17;98.32;98598.76;99918;1343;60816;-73
2021/12/10 08:54:53;;;;;;;18.30;9.00;;;;;;;-2.11;98.31;98593.27;100212;1339;71176;-73
2021/12/10 08:57:42;;;;;;;19.90;8.80;;;;;;;-2.07;98.03;98585.05;100492;1336;68322;-73
2021/12/10 09:00:33;;;;;;;20.60;9.00;;;;;;;-2.07;97.48;98584.70;100180;1333;70986;-74
2021/12/10 09:03:24;;;;;;;19.80;9.90;;;;;;;-2.06;97.56;98578.58;99605;1337;1003429;-74
2021/12/10 09:06:16;;;;;;;19.30;9.50;;;;;;;-2.04;97.51;98588.56;100097;1338;59730;-73
2021/12/10 09:09:11;;;;;;;19.20;8.70;;;;;;;-2.03;97.40;98586.27;100048;1343;73452;-74
2021/12/10 09:12:06;;;;;;;19.10;9.30;;;;;;;-2.00;97.33;98581.60;99893;1339;67288;-74
2021/12/10 09:14:57;;;;;;;17.10;7.70;;;;;;;-1.99;97.25;98585.58;100090;1337;71608;-72
2021/12/10 09:17:50;;;;;;;16.70;8.30;;;;;;;-1.99;97.27;98592.86;99727;1345;59641;-71
2021/12/10 09:20:44;;;;;;;19.90;9.90;;;;;;;-1.95;97.42;98593.88;100003;1340;59826;-73
2021/12/10 09:23:32;;;;;;;17.90;9.30;;;;;;;-1.87;97.14;98590.52;99838;1343;71419;-74
2021/12/10 09:26:27;;;;;;;22.30;9.80;;;;;;;-1.75;96.59;98580.36;99971;1342;68463;-73
2021/12/10 09:29:20;;;;;;;15.40;8.40;;;;;;;-1.66;96.12;98587.40;99239;1336;1003101;-74
2021/12/10 09:32:15;;;;;;;15.90;6.50;;;;;;;-1.60;96.42;98585.84;100074;1340;59628;-74
2021/12/10 09:35:07;;;;;;;16.90;8.70;;;;;;;-1.55;96.17;98589.61;99954;1340;59807;-74
2021/12/10 09:37:57;;;;;;;18.00;8.40;;;;;;;-1.56;96.18;98588.42;100136;1338;72588;-74
2021/12/10 09:40:55;;;;;;;16.60;8.20;;;;;;;-1.60;95.72;98582.92;100033;1338;68489;-73
2021/12/10 09:43:44;;;;;;;16.70;8.40;;;;;;;-1.61;95.86;98577.92;100219;1339;73165;-72
2021/12/10 09:46:37;;;;;;;20.20;8.80;;;;;;;-1.64;95.80;98571.45;100014;1343;59800;-71
2021/12/10 09:49:27;;;;;;;17.30;8.90;;;;;;;-1.65;96.10;98573.57;99804;1338;59669;-74
2021/12/10 09:52:21;;;;;;;18.70;8.90;;;;;;;-1.62;96.04;98572.56;99778;1339;73487;-73
2021/12/10 09:55:15;;;;;;;14.20;6.80;;;;;;;-1.53;96.08;98575.41;99792;1341;67227;-72
2021/12/10 09:58:05;;;;;;;15.90;7.80;;;;;;;-1.43;96.26;98572.30;99905;1336;73338;-72
2021/12/10 10:01:00;;;;;;;18.20;8.90;;;;;;;-1.34;95.84;98571.10;100146;1336;59762;-73
2021/12/10 10:03:59;;;;;;;19.00;8.90;;;;;;;-1.29;95.03;98554.45;100264;1339;60751;-72
2021/12/10 10:06:58;;;;;;;19.50;8.50;;;;;;;-1.22;95.04;98548.52;99998;1343;73213;-71
2021/12/10 10:09:51;;;;;;;18.70;9.40;;;;;;;-1.16;94.95;98549.80;100062;1343;67718;-71
2021/12/10 10:12:47;;;;;;;16.30;8.50;;;;;;;-1.14;94.34;98554.73;99986;1339;71732;-71
2021/12/10 10:15:40;;;;;;;18.50;8.60;;;;;;;-1.16;94.17;98550.13;100136;1343;59801;-71
2021/12/10 10:18:35;;;;;;;18.90;9.30;;;;;;;-1.13;94.18;98544.41;100132;1340;59631;-71
2021/12/10 10:21:32;;;;;;;20.10;10.10;;;;;;;-1.11;94.36;98544.46;100188;1343;72118;-72
2021/12/10 10:24:25;;;;;;;19.40;9.80;;;;;;;-1.07;93.89;98548.59;99936;1343;66723;-72
2021/12/10 10:27:20;;;;;;;18.20;8.50;;;;;;;-1.05;94.22;98551.82;99942;1339;70604;-71
2021/12/10 10:30:27;;;;;;;17.80;9.80;;;;;;;-1.02;94.19;98548.88;100154;1340;59748;-72
2021/12/10 10:33:16;;;;;;;17.30;9.30;;;;;;;-1.04;93.90;98556.61;100099;1337;60451;-72
2021/12/10 10:36:19;;;;;;;19.00;10.30;;;;;;;-1.04;93.86;98558.36;100031;1338;72306;-71
2021/12/10 10:39:14;;;;;;;17.30;8.80;;;;;;;-0.92;93.90;98558.77;100124;1339;68276;-72
2021/12/10 10:42:11;;;;;;;20.70;10.00;;;;;;;-0.80;93.48;98552.91;98436;1338;1005779;-71
2021/12/10 10:45:23;;;;;;;18.30;8.90;;;;;;;-0.75;93.07;98547.41;100087;1337;59746;-73
2021/12/10 10:48:16;;;;;;;18.90;9.40;;;;;;;-0.75;93.14;98552.26;99908;1339;60763;-71
2021/12/10 10:51:12;;;;;;;17.30;9.30;;;;;;;-0.77;93.18;98554.14;99923;1340;72365;-71
2021/12/10 10:54:08;;;;;;;16.40;8.00;;;;;;;-0.84;92.84;98556.77;99179;1339;1003279;-72
2021/12/10 10:56:57;;;;;;;21.00;10.40;;;;;;;-0.85;93.38;98549.67;100173;1336;71646;-72
2021/12/10 10:59:49;;;;;;;20.50;9.90;;;;;;;-0.87;93.08;98550.64;100077;1339;59738;-71
2021/12/10 11:02:52;;;;;;;18.70;9.50;;;;;;;-0.88;93.18;98549.48;100180;1337;59719;-73
2021/12/10 11:05:55;;;;;;;20.30;10.00;;;;;;;-0.93;93.27;98554.67;99989;1339;73493;-72
2021/12/10 11:08:55;;;;;;;15.50;7.40;;;;;;;-0.95;93.37;98548.50;99920;1344;68133;-71
2021/12/10 11:11:57;;;;;;;22.00;10.80;;;;;;;-1.02;93.52;98549.75;100008;1345;73128;-71
2021/12/10 11:14:52;;;;;;;21.70;11.90;;;;;;;-1.08;93.61;98543.46;100011;1339;59767;-72
2021/12/10 11:17:51;;;;;;;21.60;10.20;;;;;;;-1.08;93.86;98541.16;100392;1343;60947;-72
2021/12/10 11:20:43;;;;;;;20.40;10.40;;;;;;;-1.09;93.93;98544.55;100242;1343;72405;-72
2021/12/10 11:23:33;;;;;;;22.00;12.40;;;;;;;-1.14;93.86;98543.95;99840;1342;66893;-72
2021/12/10 11:26:22;;;;;;;26.70;12.70;;;;;;;-1.19;93.91;98546.33;99869;1343;71455;-73
2021/12/10 11:30:00;;;;;;;24.50;11.80;;;;;;;-1.21;94.04;98550.20;99903;1340;59835;-71
2021/12/10 11:33:01;;;;;;;24.70;12.70;;;;;;;-1.21;94.35;98551.95;100484;1338;59694;-72
2021/12/10 11:36:11;;;;;;;20.40;9.10;;;;;;;-1.20;94.55;98547.75;100458;1337;72495;-73
2021/12/10 11:39:01;;;;;;;24.60;12.90;;;;;;;-1.21;94.35;98547.11;99357;1342;1002858;-73
2021/12/10 11:41:51;;;;;;;25.30;13.20;;;;;;;-1.24;94.20;98539.04;100024;1345;71894;-72
2021/12/10 11:45:05;;;;;;;27.90;13.90;;;;;;;-1.22;94.32;98537.75;100248;1340;59770;-72
2021/12/10 11:48:03;;;;;;;26.00;13.20;;;;;;;-1.18;94.63;98541.02;99997;1344;59659;-72
2021/12/10 11:51:10;;;;;;;26.40;13.10;;;;;;;-1.17;94.50;98535.41;100160;1342;73593;-71
2021/12/10 11:54:15;;;;;;;27.90;13.60;;;;;;;-1.15;94.51;98537.58;100291;1339;67218;-72
2021/12/10 11:57:19;;;;;;;30.10;14.70;;;;;;;-1.11;94.51;98540.29;100100;1339;70145;-73
2021/12/10 12:00:25;;;;;;;29.60;15.70;;;;;;;-1.07;94.54;98538.13;99929;1339;59725;-73
2021/12/10 12:03:16;;;;;;;27.80;14.40;;;;;;;-1.02;94.23;98540.30;100318;1345;59715;-72
2021/12/10 12:06:05;;;;;;;27.10;14.80;;;;;;;-0.98;94.13;98538.74;100229;1342;72667;-72
2021/12/10 12:08:53;;;;;;;26.00;12.70;;;;;;;-1.02;93.99;98537.88;99063;1339;1003368;-72
2021/12/10 12:12:14;;;;;;;29.80;14.80;;;;;;;-1.03;94.20;98529.94;99983;1340;73268;-72
2021/12/10 12:15:28;;;;;;;35.10;16.70;;;;;;;-1.04;94.33;98525.10;100260;1343;59740;-72
2021/12/10 12:18:41;;;;;;;28.40;15.20;;;;;;;-0.99;94.65;98522.05;100082;1343;59730;-71
2021/12/10 12:27:41;;;;;;;33.00;16.80;;;;;;;-1.00;94.62;98511.70;100230;1343;72229;-72
2021/12/10 12:31:07;;;;;;;34.20;15.30;;;;;;;-1.04;94.86;98508.04;99159;1343;1003109;-72
2021/12/10 12:34:22;;;;;;;35.90;16.50;;;;;;;-1.07;95.02;98513.40;100017;1339;59730;-73
2021/12/10 12:37:20;;;;;;;28.30;15.00;;;;;;;-1.08;95.33;98515.27;99952;1341;71030;-72
2021/12/10 12:40:28;;;;;;;34.40;17.10;;;;;;;-1.10;95.35;98519.86;99932;1344;66261;-72
2021/12/10 12:43:20;;;;;;;29.80;15.10;;;;;;;-1.13;95.76;98526.27;100079;1342;76089;-71
2021/12/10 12:46:29;;;;;;;31.80;16.10;;;;;;;-1.15;95.74;98528.70;99886;1339;60252;-70
2021/12/10 12:49:18;;;;;;;38.90;18.10;;;;;;;-1.15;95.64;98530.45;100087;1342;59773;-71
2021/12/10 12:52:24;;;;;;;34.40;18.20;;;;;;;-1.14;95.70;98525.98;100090;1342;73922;-71
2021/12/10 12:55:31;;;;;;;36.10;17.60;;;;;;;-1.12;95.85;98527.80;100055;1344;67167;-73
2021/12/10 12:58:31;;;;;;;35.80;16.90;;;;;;;-1.09;95.56;98530.09;99967;1340;73262;-72
2021/12/10 13:01:37;;;;;;;36.60;18.00;;;;;;;-1.10;95.88;98528.74;100161;1339;59831;-73
2021/12/10 13:04:38;;;;;;;33.70;16.30;;;;;;;-1.12;96.12;98538.60;100383;1344;59836;-73
2021/12/10 13:07:48;;;;;;;35.50;18.70;;;;;;;-1.12;95.95;98528.67;100323;1337;73628;-72
2021/12/10 13:10:41;;;;;;;38.70;18.50;;;;;;;-1.09;96.23;98527.80;100440;1342;68438;-72
2021/12/10 13:13:44;;;;;;;33.40;16.10;;;;;;;-1.06;96.74;98535.65;100043;1343;73248;-72
2021/12/10 13:16:43;;;;;;;36.60;19.00;;;;;;;-1.06;96.37;98547.16;100114;1339;59775;-72
2021/12/10 13:19:32;;;;;;;36.10;17.90;;;;;;;-1.08;96.37;98548.83;100306;1338;59650;-72
2021/12/10 13:22:28;;;;;;;38.60;18.20;;;;;;;-1.14;96.44;98536.47;100154;1345;73437;-71
2021/12/10 13:25:23;;;;;;;36.70;18.00;;;;;;;-1.16;96.52;98535.71;100354;1336;66962;-72
2021/12/10 13:28:12;;;;;;;39.00;18.40;;;;;;;-1.16;96.71;98545.77;100131;1343;72322;-72
2021/12/10 13:31:09;;;;;;;39.00;18.40;;;;;;;-1.14;96.61;98553.88;100004;1342;59979;-72